Time;durP1;ratioP1;P1;durP2;ratioP2;P2;SDS_P1;SDS_P2;PMS_P1;PMS_P2;Temp;Humidity;BMP_temperature;BMP_pressure;BME280_temperature;BME280_humidity;BME280_pressure;Samples;Min_cycle;Max_cycle;Signal;HPM_P1;HPM_P2
2022/10/10 00:00:46;;;;;;;;;;;;;;;;;;4992583;28;1294;-50
2022/10/10 00:03:13;;;;;;;;;;;;;;;;;;4992968;28;958;-41
2022/10/10 00:05:41;;;;;;;;;;;;;;;;;;4992822;28;1978;-42
2022/10/10 00:08:10;;;;;;;;;;;;;;;;;;4992757;28;1137;-42
2022/10/10 00:10:37;;;;;;;;;;;;;;;;;;4992637;28;1199;-41
2022/10/10 00:13:04;;;;;;;;;;;;;;;;;;4992433;28;1050;-41
2022/10/10 00:15:32;;;;;;;;;;;;;;;;;;4992747;28;1426;-43
2022/10/10 00:17:59;;;;;;;;;;;;;;;;;;4992553;28;921;-50
2022/10/10 00:20:26;;;;;;;;;;;;;;;;;;4992910;28;923;-42
2022/10/10 00:22:53;;;;;;;;;;;;;;;;;;4992486;28;958;-42
2022/10/10 00:25:20;;;;;;;;;;;;;;;;;;4976462;28;1109;-42
2022/10/10 00:27:47;;;;;;;;;;;;;;;;;;4972267;28;1914;-42
2022/10/10 00:30:15;;;;;;;;;;;;;;;;;;4971511;28;1977;-44
2022/10/10 00:32:42;;;;;;;;;;;;;;;;;;4972923;28;1355;-42
2022/10/10 00:35:11;;;;;;;;;;;;;;;;;;4972823;28;1065;-41
2022/10/10 00:37:38;;;;;;;;;;;;;;;;;;4972796;28;1010;-41
2022/10/10 00:40:05;;;;;;;;;;;;;;;;;;4972963;28;1207;-43
2022/10/10 00:42:32;;;;;;;;;;;;;;;;;;4972821;28;1190;-41
2022/10/10 00:45:34;;;;;;;;;;;;;;;;;;4972704;28;1088;-41
2022/10/10 00:48:06;;;;;;;;;;;;;;;;;;4918891;29;1457;-44
2022/10/10 00:50:35;;;;;;;;;;;;;;;;;;4965863;28;1227;-41
2022/10/10 00:53:04;;;;;;;;;;;;;;;;;;4972784;28;1164;-50
2022/10/10 00:55:31;;;;;;;;;;;;;;;;;;4972819;28;1435;-42
2022/10/10 00:57:59;;;;;;;;;;;;;;;;;;4972540;28;1040;-43
2022/10/10 01:00:26;;;;;;;;;;;;;;;;;;4971216;28;1236;-41
2022/10/10 01:02:53;;;;;;;;;;;;;;;;;;4972298;28;1059;-41
2022/10/10 01:05:20;;;;;;;;;;;;;;;;;;4972431;28;981;-41
2022/10/10 01:07:47;;;;;;;;;;;;;;;;;;4972494;28;1969;-41
2022/10/10 01:10:16;;;;;;;;;;;;;;;;;;4972516;28;1158;-47
2022/10/10 01:12:49;;;;;;;;;;;;;;;;;;4972409;28;1015;-41
2022/10/10 01:15:26;;;;;;;;;;;;;;;;;;4972361;28;956;-42
2022/10/10 01:17:53;;;;;;;;;;;;;;;;;;4971131;28;1228;-41
2022/10/10 01:20:35;;;;;;;;;;;;;;;;;;4972384;28;1150;-43
2022/10/10 01:23:10;;;;;;;;;;;;;;;;;;4972507;28;1041;-41
2022/10/10 01:25:45;;;;;;;;;;;;;;;;;;4990155;28;1117;-40
2022/10/10 01:28:28;;;;;;;;;;;;;;;;;;4991584;28;1105;-40
2022/10/10 01:30:57;;;;;;;;;;;;;;;;;;4991602;28;1690;-40
2022/10/10 01:33:31;;;;;;;;;;;;;;;;;;4991808;28;1219;-41
2022/10/10 01:36:00;;;;;;;;;;;;;;;;;;4991723;28;1037;-47
2022/10/10 01:38:29;;;;;;;;;;;;;;;;;;4991510;28;1059;-51
2022/10/10 01:41:02;;;;;;;;;;;;;;;;;;4991562;28;896;-41
2022/10/10 01:43:30;;;;;;;;;;;;;;;;;;4991596;28;978;-41
2022/10/10 01:45:57;;;;;;;;;;;;;;;;;;4992117;28;1910;-52
2022/10/10 01:48:29;;;;;;;;;;;;;;;;;;4995546;28;1304;-41
2022/10/10 01:51:14;;;;;;;;;;;;;;;;;;4995110;28;1015;-42
2022/10/10 01:54:06;;;;;;;;;;;;;;;;;;4995288;28;988;-41
2022/10/10 01:56:51;;;;;;;;;;;;;;;;;;4995521;28;929;-42
2022/10/10 01:59:18;;;;;;;;;;;;;;;;;;4995135;28;1043;-42
2022/10/10 02:01:54;;;;;;;;;;;;;;;;;;4995116;28;984;-41
2022/10/10 02:04:29;;;;;;;;;;;;;;;;;;4995065;28;967;-48
2022/10/10 02:07:13;;;;;;;;;;;;;;;;;;4994988;28;1969;-42
2022/10/10 02:09:41;;;;;;;;;;;;;;;;;;4995016;28;978;-50
2022/10/10 02:12:09;;;;;;;;;;;;;;;;;;4995034;28;954;-43
2022/10/10 02:14:39;;;;;;;;;;;;;;;;;;4995305;28;919;-42
2022/10/10 02:17:09;;;;;;;;;;;;;;;;;;4995181;28;1056;-42
2022/10/10 02:19:37;;;;;;;;;;;;;;;;;;4994937;28;985;-42
2022/10/10 02:22:05;;;;;;;;;;;;;;;;;;4995076;28;966;-48
2022/10/10 02:24:32;;;;;;;;;;;;;;;;;;4985277;28;1101;-42
2022/10/10 02:27:08;;;;;;;;;;;;;;;;;;4975250;28;1907;-41
2022/10/10 02:29:36;;;;;;;;;;;;;;;;;;4975240;28;1422;-42
2022/10/10 02:32:06;;;;;;;;;;;;;;;;;;4975450;28;1029;-42
2022/10/10 02:34:37;;;;;;;;;;;;;;;;;;4975325;28;1005;-42
2022/10/10 02:37:09;;;;;;;;;;;;;;;;;;4975268;28;1074;-42
2022/10/10 02:39:40;;;;;;;;;;;;;;;;;;4975266;28;958;-41
2022/10/10 02:42:08;;;;;;;;;;;;;;;;;;4975150;28;1237;-42
2022/10/10 02:44:36;;;;;;;;;;;;;;;;;;4975253;28;1013;-43
2022/10/10 02:47:03;;;;;;;;;;;;;;;;;;4974969;28;1974;-42
2022/10/10 02:49:31;;;;;;;;;;;;;;;;;;4974946;28;959;-51
2022/10/10 02:51:59;;;;;;;;;;;;;;;;;;4974859;28;886;-41
2022/10/10 02:54:26;;;;;;;;;;;;;;;;;;4974836;28;957;-44
2022/10/10 02:56:53;;;;;;;;;;;;;;;;;;4974352;28;1170;-42
2022/10/10 02:59:20;;;;;;;;;;;;;;;;;;4973816;28;1041;-51
2022/10/10 03:01:47;;;;;;;;;;;;;;;;;;4989484;28;1237;-42
2022/10/10 03:04:14;;;;;;;;;;;;;;;;;;4993979;28;1181;-42
2022/10/10 03:06:41;;;;;;;;;;;;;;;;;;4994084;28;1910;-44
2022/10/10 03:09:08;;;;;;;;;;;;;;;;;;4994187;28;949;-42
2022/10/10 03:11:38;;;;;;;;;;;;;;;;;;4993950;28;1044;-43
2022/10/10 03:14:05;;;;;;;;;;;;;;;;;;4994257;28;1307;-42
2022/10/10 03:16:32;;;;;;;;;;;;;;;;;;4993669;28;1069;-52
2022/10/10 03:18:59;;;;;;;;;;;;;;;;;;4993785;28;1173;-43
2022/10/10 03:21:26;;;;;;;;;;;;;;;;;;4993917;28;1398;-42
2022/10/10 03:23:53;;;;;;;;;;;;;;;;;;4989588;28;1304;-44
2022/10/10 03:26:20;;;;;;;;;;;;;;;;;;4973715;28;2012;-54
2022/10/10 03:28:47;;;;;;;;;;;;;;;;;;4973747;28;1242;-42
2022/10/10 03:31:15;;;;;;;;;;;;;;;;;;4974194;28;1079;-41
2022/10/10 03:33:42;;;;;;;;;;;;;;;;;;4974104;28;998;-42
2022/10/10 03:36:09;;;;;;;;;;;;;;;;;;4973973;28;1122;-42
2022/10/10 03:38:37;;;;;;;;;;;;;;;;;;4974188;28;1135;-42
2022/10/10 03:41:05;;;;;;;;;;;;;;;;;;4974080;28;1117;-42
2022/10/10 03:43:33;;;;;;;;;;;;;;;;;;4973694;28;993;-41
2022/10/10 03:46:00;;;;;;;;;;;;;;;;;;4973878;28;1012;-41
2022/10/10 03:48:28;;;;;;;;;;;;;;;;;;4973804;28;2043;-54
2022/10/10 03:50:57;;;;;;;;;;;;;;;;;;4973700;28;1244;-52
2022/10/10 03:53:25;;;;;;;;;;;;;;;;;;4973535;28;1192;-42
2022/10/10 03:55:53;;;;;;;;;;;;;;;;;;4973584;28;911;-49
2022/10/10 03:58:21;;;;;;;;;;;;;;;;;;4973591;28;1096;-41
2022/10/10 04:00:57;;;;;;;;;;;;;;;;;;4973570;28;965;-43
2022/10/10 04:03:25;;;;;;;;;;;;;;;;;;4973464;28;1045;-52
2022/10/10 04:05:52;;;;;;;;;;;;;;;;;;4973430;28;994;-41
2022/10/10 04:08:19;;;;;;;;;;;;;;;;;;4971797;28;1903;-40
2022/10/10 04:10:47;;;;;;;;;;;;;;;;;;4972906;28;1152;-53
2022/10/10 04:13:14;;;;;;;;;;;;;;;;;;4973483;28;963;-41
2022/10/10 04:15:41;;;;;;;;;;;;;;;;;;4973262;28;1327;-46
2022/10/10 04:18:08;;;;;;;;;;;;;;;;;;4973310;28;1120;-41
2022/10/10 04:20:35;;;;;;;;;;;;;;;;;;4973447;28;954;-41
2022/10/10 04:23:02;;;;;;;;;;;;;;;;;;4972847;28;1149;-41
2022/10/10 04:25:30;;;;;;;;;;;;;;;;;;4990096;28;1126;-43
2022/10/10 04:27:57;;;;;;;;;;;;;;;;;;4992313;28;1983;-42
2022/10/10 04:30:30;;;;;;;;;;;;;;;;;;4992333;28;1718;-49
2022/10/10 04:32:57;;;;;;;;;;;;;;;;;;4992334;28;1222;-42
2022/10/10 04:35:24;;;;;;;;;;;;;;;;;;4992275;28;1075;-43
2022/10/10 04:37:53;;;;;;;;;;;;;;;;;;4992227;28;927;-54
2022/10/10 04:40:21;;;;;;;;;;;;;;;;;;4992221;28;1158;-42
2022/10/10 04:42:53;;;;;;;;;;;;;;;;;;4992193;28;1153;-43
2022/10/10 04:45:20;;;;;;;;;;;;;;;;;;4992196;28;944;-41
2022/10/10 04:47:47;;;;;;;;;;;;;;;;;;4992140;28;1989;-44
2022/10/10 04:50:14;;;;;;;;;;;;;;;;;;4981868;28;1260;-42
2022/10/10 04:52:41;;;;;;;;;;;;;;;;;;4972563;28;927;-42
2022/10/10 04:55:09;;;;;;;;;;;;;;;;;;4972752;28;1237;-42
2022/10/10 04:57:36;;;;;;;;;;;;;;;;;;4972828;28;1387;-41
2022/10/10 05:00:04;;;;;;;;;;;;;;;;;;4972533;28;1081;-41
2022/10/10 05:02:31;;;;;;;;;;;;;;;;;;4971042;28;1196;-42
2022/10/10 05:04:58;;;;;;;;;;;;;;;;;;4972343;28;1076;-42
2022/10/10 05:07:25;;;;;;;;;;;;;;;;;;4972497;28;1914;-42
2022/10/10 05:09:53;;;;;;;;;;;;;;;;;;4972353;28;1058;-41
2022/10/10 05:12:20;;;;;;;;;;;;;;;;;;4972247;28;973;-41
2022/10/10 05:14:47;;;;;;;;;;;;;;;;;;4972305;28;1106;-42
2022/10/10 05:17:14;;;;;;;;;;;;;;;;;;4971790;28;1008;-42
2022/10/10 05:19:41;;;;;;;;;;;;;;;;;;4972152;28;1069;-42
2022/10/10 05:22:08;;;;;;;;;;;;;;;;;;4971539;28;1245;-43
2022/10/10 05:24:35;;;;;;;;;;;;;;;;;;4982131;28;1119;-42
2022/10/10 05:27:02;;;;;;;;;;;;;;;;;;4991443;28;2422;-42
2022/10/10 05:29:29;;;;;;;;;;;;;;;;;;4991350;28;1384;-51
2022/10/10 05:31:56;;;;;;;;;;;;;;;;;;4991339;28;1183;-41
2022/10/10 05:34:23;;;;;;;;;;;;;;;;;;4991178;28;958;-50
2022/10/10 05:36:51;;;;;;;;;;;;;;;;;;4991399;28;1373;-42
2022/10/10 05:39:18;;;;;;;;;;;;;;;;;;4991612;28;958;-42
2022/10/10 05:41:45;;;;;;;;;;;;;;;;;;4991415;28;1176;-45
2022/10/10 05:44:12;;;;;;;;;;;;;;;;;;4991478;28;1172;-40
2022/10/10 05:46:39;;;;;;;;;;;;;;;;;;4991471;28;1173;-41
2022/10/10 05:49:06;;;;;;;;;;;;;;;;;;4991467;28;1966;-42
2022/10/10 05:51:33;;;;;;;;;;;;;;;;;;4991619;28;1254;-42
2022/10/10 05:54:01;;;;;;;;;;;;;;;;;;4991382;28;1065;-42
2022/10/10 05:56:28;;;;;;;;;;;;;;;;;;4991178;28;1104;-46
2022/10/10 05:58:55;;;;;;;;;;;;;;;;;;4990736;28;1073;-42
2022/10/10 06:01:22;;;;;;;;;;;;;;;;;;4991049;28;1095;-46
2022/10/10 06:03:54;;;;;;;;;;;;;;;;;;4991188;28;1242;-42
2022/10/10 06:06:22;;;;;;;;;;;;;;;;;;4991227;28;981;-51
2022/10/10 06:08:50;;;;;;;;;;;;;;;;;;4991195;28;1891;-43
2022/10/10 06:11:18;;;;;;;;;;;;;;;;;;4991292;28;1351;-45
2022/10/10 06:13:46;;;;;;;;;;;;;;;;;;4991168;28;1025;-45
2022/10/10 06:16:14;;;;;;;;;;;;;;;;;;4991379;28;1280;-43
2022/10/10 06:18:41;;;;;;;;;;;;;;;;;;4990633;28;1227;-42
2022/10/10 06:21:09;;;;;;;;;;;;;;;;;;4991327;28;1158;-52
2022/10/10 06:23:36;;;;;;;;;;;;;;;;;;4989458;28;1249;-52
2022/10/10 06:26:03;;;;;;;;;;;;;;;;;;4970804;28;906;-42
2022/10/10 06:28:31;;;;;;;;;;;;;;;;;;4971652;28;1911;-43
2022/10/10 06:31:03;;;;;;;;;;;;;;;;;;4973757;28;1727;-54
2022/10/10 06:33:30;;;;;;;;;;;;;;;;;;4993895;28;1208;-46
2022/10/10 06:35:57;;;;;;;;;;;;;;;;;;4994646;28;1075;-42
2022/10/10 06:38:26;;;;;;;;;;;;;;;;;;4994548;28;1067;-42
2022/10/10 06:40:53;;;;;;;;;;;;;;;;;;4994358;28;1341;-46
2022/10/10 06:43:25;;;;;;;;;;;;;;;;;;4994491;28;1356;-51
2022/10/10 06:45:52;;;;;;;;;;;;;;;;;;4994012;28;1006;-53
2022/10/10 06:48:19;;;;;;;;;;;;;;;;;;4994312;28;1918;-50
2022/10/10 06:50:56;;;;;;;;;;;;;;;;;;4992914;28;1307;-52
2022/10/10 06:53:24;;;;;;;;;;;;;;;;;;4994195;28;1049;-42
2022/10/10 06:55:53;;;;;;;;;;;;;;;;;;4994233;28;1093;-42
2022/10/10 06:58:22;;;;;;;;;;;;;;;;;;4994455;28;926;-48
2022/10/10 07:00:50;;;;;;;;;;;;;;;;;;4993901;28;1301;-54
2022/10/10 07:03:17;;;;;;;;;;;;;;;;;;4994137;28;1006;-42
2022/10/10 07:05:47;;;;;;;;;;;;;;;;;;4993747;28;1086;-42
2022/10/10 07:08:14;;;;;;;;;;;;;;;;;;4993953;28;1921;-53
2022/10/10 07:10:42;;;;;;;;;;;;;;;;;;4994016;28;1274;-50
2022/10/10 07:13:09;;;;;;;;;;;;;;;;;;4993936;28;1221;-42
2022/10/10 07:15:36;;;;;;;;;;;;;;;;;;4994192;28;1073;-43
2022/10/10 07:18:04;;;;;;;;;;;;;;;;;;4993674;28;1157;-42
2022/10/10 07:20:31;;;;;;;;;;;;;;;;;;4978601;28;1188;-42
2022/10/10 07:22:58;;;;;;;;;;;;;;;;;;4974099;28;1121;-54
2022/10/10 07:25:25;;;;;;;;;;;;;;;;;;4990521;28;1117;-49
2022/10/10 07:27:52;;;;;;;;;;;;;;;;;;4993342;28;1976;-43
2022/10/10 07:30:20;;;;;;;;;;;;;;;;;;4993021;28;1333;-42
2022/10/10 07:32:47;;;;;;;;;;;;;;;;;;4993296;28;1228;-45
2022/10/10 07:35:14;;;;;;;;;;;;;;;;;;4993511;28;1286;-43
2022/10/10 07:37:43;;;;;;;;;;;;;;;;;;4993473;28;922;-55
2022/10/10 07:40:10;;;;;;;;;;;;;;;;;;4993423;28;996;-50
2022/10/10 07:42:38;;;;;;;;;;;;;;;;;;4993392;28;1270;-42
2022/10/10 07:45:05;;;;;;;;;;;;;;;;;;4992684;28;1017;-42
2022/10/10 07:47:32;;;;;;;;;;;;;;;;;;4993068;28;1905;-41
2022/10/10 07:49:59;;;;;;;;;;;;;;;;;;4992667;28;1193;-54
2022/10/10 07:52:26;;;;;;;;;;;;;;;;;;4993137;28;987;-51
2022/10/10 07:54:53;;;;;;;;;;;;;;;;;;4992321;28;1104;-49
2022/10/10 07:57:20;;;;;;;;;;;;;;;;;;4993048;28;927;-47
2022/10/10 07:59:47;;;;;;;;;;;;;;;;;;4992686;28;971;-42
2022/10/10 08:02:15;;;;;;;;;;;;;;;;;;4992361;28;1010;-43
2022/10/10 08:04:42;;;;;;;;;;;;;;;;;;4991689;28;1157;-46
2022/10/10 08:07:09;;;;;;;;;;;;;;;;;;4992657;28;1125;-42
2022/10/10 08:09:36;;;;;;;;;;;;;;;;;;4992084;28;1910;-42
2022/10/10 08:12:03;;;;;;;;;;;;;;;;;;4992784;28;1307;-52
2022/10/10 08:14:30;;;;;;;;;;;;;;;;;;4992582;28;1213;-42
2022/10/10 08:16:58;;;;;;;;;;;;;;;;;;4992548;28;1595;-42
2022/10/10 08:19:26;;;;;;;;;;;;;;;;;;4992292;28;931;-44
2022/10/10 08:21:53;;;;;;;;;;;;;;;;;;4992518;28;1064;-48
2022/10/10 08:24:20;;;;;;;;;;;;;;;;;;4984566;28;1164;-42
2022/10/10 08:26:49;;;;;;;;;;;;;;;;;;4972887;28;1245;-44
2022/10/10 08:29:17;;;;;;;;;;;;;;;;;;4972871;28;1923;-42
2022/10/10 08:31:44;;;;;;;;;;;;;;;;;;4973022;28;970;-43
2022/10/10 08:34:12;;;;;;;;;;;;;;;;;;4972340;28;986;-51
2022/10/10 08:36:39;;;;;;;;;;;;;;;;;;4972987;28;1167;-42
2022/10/10 08:39:06;;;;;;;;;;;;;;;;;;4973080;28;1014;-41
2022/10/10 08:41:37;;;;;;;;;;;;;;;;;;4972551;28;1027;-42
2022/10/10 08:44:17;;;;;;;;;;;;;;;;;;4972812;28;1009;-45
2022/10/10 08:47:09;;;;;;;;;;;;;;;;;;4972453;28;1222;-41
2022/10/10 08:49:40;;;;;;;;;;;;;;;;;;4971500;28;1926;-41
2022/10/10 08:52:13;;;;;;;;;;;;;;;;;;4972816;28;936;-50
2022/10/10 08:54:41;;;;;;;;;;;;;;;;;;4975555;28;1395;-44
2022/10/10 08:57:17;;;;;;;;;;;;;;;;;;4992341;28;1116;-42
2022/10/10 08:59:44;;;;;;;;;;;;;;;;;;4983495;28;1433;-54
2022/10/10 09:02:23;;;;;;;;;;;;;;;;;;4972480;28;917;-41
2022/10/10 09:04:56;;;;;;;;;;;;;;;;;;4972279;28;941;-53
2022/10/10 09:07:26;;;;;;;;;;;;;;;;;;4972617;28;986;-43
2022/10/10 09:10:11;;;;;;;;;;;;;;;;;;4972399;28;1910;-49
2022/10/10 09:13:05;;;;;;;;;;;;;;;;;;4987000;28;1367;-42
2022/10/10 09:15:50;;;;;;;;;;;;;;;;;;4991871;28;1241;-54
2022/10/10 09:18:40;;;;;;;;;;;;;;;;;;4991669;28;895;-46
2022/10/10 09:21:30;;;;;;;;;;;;;;;;;;4991821;28;1045;-51
2022/10/10 09:23:57;;;;;;;;;;;;;;;;;;4987161;28;1442;-53
2022/10/10 09:26:26;;;;;;;;;;;;;;;;;;4972306;28;1157;-42
2022/10/10 09:28:56;;;;;;;;;;;;;;;;;;4971914;28;1906;-50
2022/10/10 09:31:29;;;;;;;;;;;;;;;;;;4972027;28;1180;-53
2022/10/10 09:33:59;;;;;;;;;;;;;;;;;;4972244;28;971;-52
2022/10/10 09:36:32;;;;;;;;;;;;;;;;;;4972184;28;1036;-47
2022/10/10 09:39:14;;;;;;;;;;;;;;;;;;4972045;28;1301;-49
2022/10/10 09:41:46;;;;;;;;;;;;;;;;;;4972307;28;1015;-42
2022/10/10 09:44:13;;;;;;;;;;;;;;;;;;4972092;28;1290;-50
2022/10/10 09:46:41;;;;;;;;;;;;;;;;;;4972200;28;1015;-46
2022/10/10 09:49:12;;;;;;;;;;;;;;;;;;4986463;28;1979;-52
2022/10/10 09:51:39;;;;;;;;;;;;;;;;;;4991501;28;1058;-51
2022/10/10 09:54:06;;;;;;;;;;;;;;;;;;4991723;28;1063;-44
2022/10/10 09:56:42;;;;;;;;;;;;;;;;;;4991344;28;1065;-52
2022/10/10 09:59:28;;;;;;;;;;;;;;;;;;4991468;28;1132;-43
2022/10/10 10:02:02;;;;;;;;;;;;;;;;;;4991431;28;1093;-53
2022/10/10 10:04:32;;;;;;;;;;;;;;;;;;4991350;28;1324;-51
2022/10/10 10:07:25;;;;;;;;;;;;;;;;;;4992058;28;1353;-51
2022/10/10 10:09:58;;;;;;;;;;;;;;;;;;4992765;28;1964;-53
2022/10/10 10:12:30;;;;;;;;;;;;;;;;;;4995337;28;1144;-53
2022/10/10 10:15:02;;;;;;;;;;;;;;;;;;4995018;28;1008;-53
2022/10/10 10:17:29;;;;;;;;;;;;;;;;;;4994915;28;1100;-49
2022/10/10 10:19:56;;;;;;;;;;;;;;;;;;4993877;28;1165;-53
2022/10/10 10:22:25;;;;;;;;;;;;;;;;;;4995087;28;1168;-45
2022/10/10 10:24:53;;;;;;;;;;;;;;;;;;4994876;28;1109;-52
2022/10/10 10:27:22;;;;;;;;;;;;;;;;;;4994940;28;1065;-42
2022/10/10 10:29:50;;;;;;;;;;;;;;;;;;4994486;28;1908;-42
2022/10/10 10:32:26;;;;;;;;;;;;;;;;;;4994881;28;1031;-50
2022/10/10 10:35:00;;;;;;;;;;;;;;;;;;4994661;28;1182;-52
2022/10/10 10:37:46;;;;;;;;;;;;;;;;;;4994780;28;1172;-53
2022/10/10 10:40:26;;;;;;;;;;;;;;;;;;4994382;28;1047;-53
2022/10/10 10:42:54;;;;;;;;;;;;;;;;;;4994405;28;1436;-50
2022/10/10 10:45:21;;;;;;;;;;;;;;;;;;4994643;28;1198;-42
2022/10/10 10:47:57;;;;;;;;;;;;;;;;;;4994436;28;1017;-42
2022/10/10 10:50:45;;;;;;;;;;;;;;;;;;4994470;28;1918;-41
2022/10/10 10:53:21;;;;;;;;;;;;;;;;;;4955243;28;1099;-44
2022/10/10 10:56:17;;;;;;;;;;;;;;;;;;4994301;28;976;-42
2022/10/10 10:58:44;;;;;;;;;;;;;;;;;;4978108;28;1341;-43
2022/10/10 11:01:31;;;;;;;;;;;;;;;;;;4994230;28;1661;-53
2022/10/10 11:04:29;;;;;;;;;;;;;;;;;;4992896;28;2305;-44
2022/10/10 11:07:18;;;;;;;;;;;;;;;;;;4994057;28;1031;-42
2022/10/10 11:09:55;;;;;;;;;;;;;;;;;;4994096;28;1910;-49
2022/10/10 11:12:22;;;;;;;;;;;;;;;;;;4994152;28;1138;-48
2022/10/10 11:14:55;;;;;;;;;;;;;;;;;;4993925;28;1280;-41
2022/10/10 11:17:29;;;;;;;;;;;;;;;;;;4993926;28;1070;-48
2022/10/10 11:20:00;;;;;;;;;;;;;;;;;;4992606;28;1447;-42
2022/10/10 11:22:30;;;;;;;;;;;;;;;;;;4993874;28;976;-52
2022/10/10 11:24:57;;;;;;;;;;;;;;;;;;4981041;28;1109;-42
2022/10/10 11:27:31;;;;;;;;;;;;;;;;;;4974404;28;904;-52
2022/10/10 17:02:45;;;;;;;;;;;;;;;;;;5192258;27;1439;-41
2022/10/10 17:05:14;;;;;;;;;;;;;;;;;;5192256;27;1189;-42
2022/10/10 17:07:41;;;;;;;;;;;;;;;;;;5191977;27;1162;-52
2022/10/10 17:10:08;;;;;;;;;;;;;;;;;;5192151;27;928;-50
2022/10/10 17:12:35;;;;;;;;;;;;;;;;;;5191913;27;1305;-42
2022/10/10 17:15:04;;;;;;;;;;;;;;;;;;5192084;27;1011;-42
2022/10/10 17:17:34;;;;;;;;;;;;;;;;;;5191883;27;973;-44
2022/10/10 17:20:01;;;;;;;;;;;;;;;;;;5191703;27;989;-45
2022/10/10 17:22:28;;;;;;;;;;;;;;;;;;5191600;27;1983;-42
2022/10/10 17:24:55;;;;;;;;;;;;;;;;;;5191506;27;1099;-42
2022/10/10 17:27:23;;;;;;;;;;;;;;;;;;5191581;27;1367;-49
2022/10/10 17:29:52;;;;;;;;;;;;;;;;;;5191509;27;983;-43
2022/10/10 17:32:20;;;;;;;;;;;;;;;;;;5191482;27;1199;-42
2022/10/10 17:34:47;;;;;;;;;;;;;;;;;;5191387;27;906;-42
2022/10/10 17:37:14;;;;;;;;;;;;;;;;;;5191413;27;1174;-42
2022/10/10 17:39:41;;;;;;;;;;;;;;;;;;5191669;27;967;-48
2022/10/10 17:42:08;;;;;;;;;;;;;;;;;;5191326;27;1915;-52
2022/10/10 17:44:35;;;;;;;;;;;;;;;;;;5191398;27;1180;-43
2022/10/10 17:47:09;;;;;;;;;;;;;;;;;;5191467;27;1106;-44
2022/10/10 17:49:36;;;;;;;;;;;;;;;;;;5191127;27;1256;-42
2022/10/10 17:52:04;;;;;;;;;;;;;;;;;;5172807;27;1086;-52
2022/10/10 17:54:31;;;;;;;;;;;;;;;;;;5191011;27;1057;-44
2022/10/10 17:56:58;;;;;;;;;;;;;;;;;;5190069;27;1103;-42
2022/10/10 17:59:25;;;;;;;;;;;;;;;;;;5191203;27;1031;-43
2022/10/10 18:01:53;;;;;;;;;;;;;;;;;;5190714;27;1909;-42
2022/10/10 18:04:20;;;;;;;;;;;;;;;;;;5191026;27;1172;-55
2022/10/10 18:06:49;;;;;;;;;;;;;;;;;;5190764;27;1248;-41
2022/10/10 18:09:16;;;;;;;;;;;;;;;;;;5191046;27;1426;-43
2022/10/10 18:11:44;;;;;;;;;;;;;;;;;;5190527;27;1161;-44
2022/10/10 18:14:11;;;;;;;;;;;;;;;;;;5176854;27;1006;-42
2022/10/10 18:16:38;;;;;;;;;;;;;;;;;;5176855;27;1211;-43
2022/10/10 18:19:07;;;;;;;;;;;;;;;;;;5176402;27;1003;-51
2022/10/10 18:21:34;;;;;;;;;;;;;;;;;;5176635;27;2062;-53
2022/10/10 18:24:01;;;;;;;;;;;;;;;;;;5170891;27;1249;-42
2022/10/10 18:26:30;;;;;;;;;;;;;;;;;;5155698;27;1118;-43
2022/10/10 18:28:58;;;;;;;;;;;;;;;;;;5155311;27;1366;-42
2022/10/10 18:31:30;;;;;;;;;;;;;;;;;;5155519;27;1005;-42
2022/10/10 18:33:57;;;;;;;;;;;;;;;;;;5172469;27;1135;-43
2022/10/10 18:36:26;;;;;;;;;;;;;;;;;;5176334;27;1031;-46
2022/10/10 18:38:56;;;;;;;;;;;;;;;;;;5176236;27;959;-50
2022/10/10 18:41:26;;;;;;;;;;;;;;;;;;5176124;27;1941;-45
2022/10/10 18:43:54;;;;;;;;;;;;;;;;;;5176128;27;1009;-42
2022/10/10 18:46:22;;;;;;;;;;;;;;;;;;5176124;27;1164;-43
2022/10/10 18:48:54;;;;;;;;;;;;;;;;;;5176054;27;973;-52
2022/10/10 18:51:23;;;;;;;;;;;;;;;;;;5176145;27;1264;-51
2022/10/10 18:54:02;;;;;;;;;;;;;;;;;;5175961;27;1107;-45
2022/10/10 18:56:32;;;;;;;;;;;;;;;;;;5175873;27;984;-48
2022/10/10 18:59:01;;;;;;;;;;;;;;;;;;5175817;27;976;-41
2022/10/10 19:01:29;;;;;;;;;;;;;;;;;;5175716;27;1917;-43
2022/10/10 19:03:56;;;;;;;;;;;;;;;;;;5175741;27;1262;-42
2022/10/10 19:06:25;;;;;;;;;;;;;;;;;;5175715;27;1043;-44
2022/10/10 19:08:55;;;;;;;;;;;;;;;;;;5175377;27;1088;-43
2022/10/10 19:11:24;;;;;;;;;;;;;;;;;;5175024;27;1189;-42
2022/10/10 19:13:51;;;;;;;;;;;;;;;;;;5175577;27;1360;-43
2022/10/10 19:16:19;;;;;;;;;;;;;;;;;;5175628;27;961;-43
2022/10/10 19:18:47;;;;;;;;;;;;;;;;;;5175314;27;1036;-43
2022/10/10 19:21:15;;;;;;;;;;;;;;;;;;5175265;27;1975;-44
2022/10/10 19:23:43;;;;;;;;;;;;;;;;;;5172470;27;1113;-52
2022/10/10 19:26:12;;;;;;;;;;;;;;;;;;5153917;27;1059;-46
2022/10/10 19:28:41;;;;;;;;;;;;;;;;;;5154407;27;1235;-54
2022/10/10 19:31:10;;;;;;;;;;;;;;;;;;5154261;27;1213;-42
2022/10/10 19:33:39;;;;;;;;;;;;;;;;;;5154120;27;931;-42
2022/10/10 19:36:10;;;;;;;;;;;;;;;;;;5154319;27;1064;-41
2022/10/10 19:38:38;;;;;;;;;;;;;;;;;;5135787;27;1111;-47
2022/10/10 19:41:06;;;;;;;;;;;;;;;;;;5154186;27;1989;-54
2022/10/10 19:43:33;;;;;;;;;;;;;;;;;;5153874;27;972;-43
2022/10/10 19:46:04;;;;;;;;;;;;;;;;;;5154032;27;1044;-54
2022/10/10 19:48:33;;;;;;;;;;;;;;;;;;5135857;27;939;-43
2022/10/10 19:51:04;;;;;;;;;;;;;;;;;;5154095;27;1260;-45
2022/10/10 19:53:35;;;;;;;;;;;;;;;;;;5154069;27;1038;-53
2022/10/10 19:56:04;;;;;;;;;;;;;;;;;;5154011;27;1090;-52
2022/10/10 19:58:33;;;;;;;;;;;;;;;;;;5153902;27;1191;-44
2022/10/10 20:01:04;;;;;;;;;;;;;;;;;;5153531;27;1198;-44
2022/10/10 20:03:31;;;;;;;;;;;;;;;;;;5153786;27;1002;-43
2022/10/10 20:05:59;;;;;;;;;;;;;;;;;;5153670;27;1164;-42
2022/10/10 20:08:26;;;;;;;;;;;;;;;;;;5153696;27;895;-53
2022/10/10 20:10:53;;;;;;;;;;;;;;;;;;5153637;27;1220;-53
2022/10/10 20:13:20;;;;;;;;;;;;;;;;;;5153396;27;1114;-42
2022/10/10 20:15:48;;;;;;;;;;;;;;;;;;5153648;27;1019;-43
2022/10/10 20:18:16;;;;;;;;;;;;;;;;;;5153398;27;1348;-42
2022/10/10 20:20:46;;;;;;;;;;;;;;;;;;5153512;27;1208;-44
2022/10/10 20:23:14;;;;;;;;;;;;;;;;;;5153406;27;1915;-43
2022/10/10 20:25:41;;;;;;;;;;;;;;;;;;5153361;27;1391;-45
2022/10/10 20:28:09;;;;;;;;;;;;;;;;;;5153326;27;1016;-44
2022/10/10 20:30:40;;;;;;;;;;;;;;;;;;5153254;27;1383;-53
2022/10/10 20:33:07;;;;;;;;;;;;;;;;;;5134935;27;1367;-43
2022/10/10 20:35:35;;;;;;;;;;;;;;;;;;5152906;27;1063;-54
2022/10/10 20:38:03;;;;;;;;;;;;;;;;;;5153225;27;1364;-42
2022/10/10 20:40:30;;;;;;;;;;;;;;;;;;5152965;27;964;-42
2022/10/10 20:42:57;;;;;;;;;;;;;;;;;;5152975;27;1915;-50
2022/10/10 20:45:24;;;;;;;;;;;;;;;;;;5153107;27;935;-43
2022/10/10 20:47:51;;;;;;;;;;;;;;;;;;5152950;27;1105;-44
2022/10/10 20:50:19;;;;;;;;;;;;;;;;;;5153082;27;1026;-54
2022/10/10 20:52:46;;;;;;;;;;;;;;;;;;5152714;27;1013;-42
2022/10/10 20:55:13;;;;;;;;;;;;;;;;;;5153110;27;1097;-43
2022/10/10 20:57:40;;;;;;;;;;;;;;;;;;5152941;27;1076;-50
2022/10/10 21:00:07;;;;;;;;;;;;;;;;;;5152828;27;1295;-43
2022/10/10 21:02:34;;;;;;;;;;;;;;;;;;5152692;27;1983;-42
2022/10/10 21:05:02;;;;;;;;;;;;;;;;;;5152829;27;1024;-43
2022/10/10 21:07:29;;;;;;;;;;;;;;;;;;5152808;27;1011;-43
2022/10/10 21:09:58;;;;;;;;;;;;;;;;;;5152850;27;1076;-51
2022/10/10 21:12:25;;;;;;;;;;;;;;;;;;5152833;27;1094;-47
2022/10/10 21:14:52;;;;;;;;;;;;;;;;;;5152659;27;1175;-46
2022/10/10 21:17:19;;;;;;;;;;;;;;;;;;5152789;27;1232;-42
2022/10/10 21:19:46;;;;;;;;;;;;;;;;;;5152754;27;1193;-45
2022/10/10 21:22:13;;;;;;;;;;;;;;;;;;5152805;27;1984;-52
2022/10/10 21:24:40;;;;;;;;;;;;;;;;;;5152788;27;1122;-42
2022/10/10 21:27:07;;;;;;;;;;;;;;;;;;5152624;27;884;-46
2022/10/10 21:29:34;;;;;;;;;;;;;;;;;;5152639;27;1049;-54
2022/10/10 21:32:01;;;;;;;;;;;;;;;;;;5152612;27;903;-44
2022/10/10 21:34:28;;;;;;;;;;;;;;;;;;5152370;27;1046;-51
2022/10/10 21:36:55;;;;;;;;;;;;;;;;;;5152540;27;996;-53
2022/10/10 21:39:23;;;;;;;;;;;;;;;;;;5152658;27;1132;-46
2022/10/10 21:41:50;;;;;;;;;;;;;;;;;;5152356;27;1972;-51
2022/10/10 21:44:17;;;;;;;;;;;;;;;;;;5152504;27;1197;-46
2022/10/10 21:46:44;;;;;;;;;;;;;;;;;;5152601;27;1063;-42
2022/10/10 21:49:11;;;;;;;;;;;;;;;;;;5155719;27;1063;-50
2022/10/10 21:51:40;;;;;;;;;;;;;;;;;;5156520;27;949;-44
2022/10/10 21:54:08;;;;;;;;;;;;;;;;;;5137859;27;1634;-42
2022/10/10 21:56:35;;;;;;;;;;;;;;;;;;5156208;27;1124;-49
2022/10/10 21:59:02;;;;;;;;;;;;;;;;;;5156070;27;996;-47
2022/10/10 22:01:31;;;;;;;;;;;;;;;;;;5156094;27;1091;-43
2022/10/10 22:03:59;;;;;;;;;;;;;;;;;;5156007;27;1909;-43
2022/10/10 22:06:26;;;;;;;;;;;;;;;;;;5156170;27;1015;-42
2022/10/10 22:08:55;;;;;;;;;;;;;;;;;;5156063;27;1147;-45
2022/10/10 22:11:24;;;;;;;;;;;;;;;;;;5155904;27;1145;-43
2022/10/10 22:13:51;;;;;;;;;;;;;;;;;;5156108;27;1198;-45
2022/10/10 22:16:18;;;;;;;;;;;;;;;;;;5155611;27;1071;-43
2022/10/10 22:18:46;;;;;;;;;;;;;;;;;;5137488;27;990;-42
2022/10/10 22:21:14;;;;;;;;;;;;;;;;;;5155945;27;1074;-43
2022/10/10 22:23:41;;;;;;;;;;;;;;;;;;5155690;27;1913;-44
2022/10/10 22:26:10;;;;;;;;;;;;;;;;;;5155062;27;993;-42
2022/10/10 22:28:37;;;;;;;;;;;;;;;;;;5155587;27;903;-51
2022/10/10 22:31:05;;;;;;;;;;;;;;;;;;5155493;27;981;-43
2022/10/10 22:33:32;;;;;;;;;;;;;;;;;;5155539;27;1089;-43
2022/10/10 22:36:00;;;;;;;;;;;;;;;;;;5155573;27;895;-40
2022/10/10 22:38:27;;;;;;;;;;;;;;;;;;5155570;27;990;-52
2022/10/10 22:40:54;;;;;;;;;;;;;;;;;;5155253;27;1373;-49
2022/10/10 22:43:21;;;;;;;;;;;;;;;;;;5155198;27;1917;-48
2022/10/10 22:45:52;;;;;;;;;;;;;;;;;;5155389;27;1391;-47
2022/10/10 22:48:19;;;;;;;;;;;;;;;;;;5155379;27;1066;-51
2022/10/10 22:50:46;;;;;;;;;;;;;;;;;;5155114;27;1301;-53
2022/10/10 22:53:13;;;;;;;;;;;;;;;;;;5175274;27;1042;-49